Etusivu
METAR-TAF:

METAR-TAF

Lentoasemat :

Istres, Ranska

Leveyspiiri: 43-31N, Pituuspiiri: 004-56E, korkeus merenpinnasta: 23 m

Tämänhetkinen sää

Tämä raportti tehtiin 33 minuuttia sitten, kello 20.00 UTC
Tuuli 28 kn pohjoisen/luoteesta puuskistuen 40 kn:hen
Lämpötila 9°C
Kosteus 49%
Ilmanpaine 1013 hPa
Näkyvyys 10 km tai enemmän
ei pilviä alle 1500 m:ssä eikä cumulonimbus-pilviä

METAR: LFMI 212000Z AUTO 34028G40KT CAVOK 09/M01 Q1013 NOSIG

Aika: 22:33 (20:33 UTC)

Sääennuste

Tämä raportti tehtiin 33 minuuttia sitten, kello 20.00 UTC
Ennuste voimassa 21. päivästä klo 21 UTC - 22. päivään klo 21 UTC
Tuuli 30 kn pohjoisesta puuskistuen 40 kn:hen
Näkyvyys 10 km tai enemmän
ei pilviä alle 1500 m:ssä eikä cumulonimbus-pilviä
Todennäköisyys 40% :
Ajoittain
21. päivästä klo 21 UTC - 22. päivään klo 09 UTC
Tuuli 20 kn pohjoisesta puuskistuen 35 kn:hen

TAF: LFMI 212000Z 2121/2221 35030G40KT CAVOK TX15/2214Z TN06/2205Z PROB40 TEMPO 2121/2209 35020G35KT

Säähavainnot ja -ennusteet yli 4000 lentoasemalta (METAR- ja TAF-raportit).

Käytössä olevat sääasemat on merkitty karttaan keltaisilla ja punaisilla pisteillä.

Aseta hiiri pisteen päälle nähdäksesi sääaseman nimen.

Klikkaa sitten nähdäksesi säähavainnot ja -ennusteet.

Kartan vaihtaminen: klikkaa mustalla rastilla varustettuja vihreitä pisteitä, niin voit zoomata sisään; viivalla varustettua vihreää pistettä, niin voit zoomata ulos tai vihreitä nuolia, niin pääset viereisille kartoille.


METAR-TAF: